Greenfield, TN

1:34 PM CST on December 28, 2014 (GMT -0600)
Bob Grooms Farms | Change Station
CLOSE
Current Station
Personal Weather Station
Location: Greenfield, TN
Elevation: 364 ft
Nearby Weather Stations

Elev 364 ft 36.18 °N, 88.84 °W | Updated 1 minute ago

Overcast
Overcast
37.0 °F
Feels Like 31 °F
N
8.0
Wind Variable Wind from North
Gusts 10.0 mph

Today
High -- | Low -- °F
--% Chance of Precip.
Yesterday
High -- | Low -- °F
Precip. -- in
7:05 AM 4:48 PM
Waxing Crescent, 50% visible
Pressure 30.20 in
Visibility 6.0 miles
Clouds Overcast 900 ft
Windchill 31 °F
Dew Point 37 °F
Humidity 98%
Rainfall 0.01 in
Snow Depth Not available.
UV 1 out of 12
Pollen .10 out of 12
Air Quality Not available.
Flu Activity Not available.
METAR KUCY 281715Z AUTO 01008KT 6SM OVC009 01/01 A3020 RMK

More Conditions Fewer Conditions

Pressure 30.20 in
Visibility 6.0 miles
Clouds Overcast 900 ft
Windchill 31 °F
Dew Point 37 °F
Humidity 98%
Rainfall 0.01 in
Snow Depth Not available.
UV 1 out of 12
Pollen .10 out of 12
Air Quality Not available.
Flu Activity Not available.
METAR KUCY 281715Z AUTO 01008KT 6SM OVC009 01/01 A3020 RMK

More Conditions Fewer Conditions

10-Day Weather Forecast

Almanac

Astronomy

Dec. 28, 2014 Rise Set
Actual Time
Civil Twilight
Nautical Twilight
Astronomical Twilight
Moon
Length of Visible Light
Length of Day
Tomorrow will be .
, % of the Moon is Illuminated

Today's Extremes

State Highs State Lows

Community

WunderPhotos

Upload Photos

1,781,401 photos uploaded!

WunderBlogs® & News

Nearby

Air Quality

  Air Quality AQ Index Pollutant
Not available.

Snow Depth

Station Depth Elevation

Earthquake Activity

City Distance Mag. Time & Date
Minimum magnitude displayed is 2.5.

Coastal Water Temperatures

Place Temperature

Nearby Weather Stations